createdAt,value
2022-08-27T05:22:27.839Z,14.23
2022-08-27T05:25:13.822Z,20.15
2022-08-27T05:27:59.700Z,11.45
2022-08-27T05:30:49.287Z,14.85
2022-08-27T05:33:42.683Z,14.93
2022-08-27T05:36:32.039Z,10.27
2022-08-27T05:39:18.039Z,12.82
2022-08-27T05:42:03.952Z,10.68
2022-08-27T05:44:49.869Z,12.02
2022-08-27T05:47:37.522Z,11.32
2022-08-27T05:50:30.474Z,13.90
2022-08-27T05:53:16.198Z,16.70
2022-08-27T05:56:02.228Z,10.88
2022-08-27T05:59:08.672Z,12.38
2022-08-27T06:01:55.983Z,10.13
2022-08-27T06:04:41.806Z,6.75
2022-08-27T06:07:27.874Z,6.57
2022-08-27T06:10:13.889Z,13.73
2022-08-27T06:12:59.850Z,7.82
2022-08-27T06:15:46.000Z,13.95
2022-08-27T06:18:32.790Z,9.93
2022-08-27T06:21:24.282Z,11.52
2022-08-27T06:24:13.050Z,5.82
2022-08-27T06:26:59.593Z,7.43
2022-08-27T06:29:46.103Z,11.15
2022-08-27T06:32:32.077Z,6.95
2022-08-27T06:35:19.003Z,14.00
2022-08-27T06:38:04.980Z,6.88
2022-08-27T06:40:51.617Z,8.65
2022-08-27T06:43:39.158Z,6.22
2022-08-27T06:46:27.947Z,9.57
2022-08-27T06:49:14.180Z,7.78
2022-08-27T06:52:00.155Z,6.80
2022-08-27T06:54:46.355Z,7.63
2022-08-27T06:57:32.265Z,12.50
2022-08-27T07:00:18.117Z,8.23
2022-08-27T07:03:05.645Z,8.70
2022-08-27T07:05:51.703Z,11.05
2022-08-27T07:08:38.553Z,6.05
2022-08-27T07:11:24.950Z,9.23
2022-08-27T07:14:10.996Z,4.78
2022-08-27T07:16:56.975Z,5.68
2022-08-27T07:19:42.987Z,13.23
2022-08-27T07:22:29.986Z,7.78
2022-08-27T07:25:20.968Z,10.60
2022-08-27T07:28:06.948Z,6.97
2022-08-27T07:30:53.615Z,9.98
2022-08-27T07:33:42.135Z,9.32
2022-08-27T07:36:34.365Z,12.13
2022-08-27T07:39:20.299Z,8.88
2022-08-27T07:42:24.735Z,6.53
2022-08-27T07:45:10.979Z,6.20
2022-08-27T07:47:56.669Z,7.05
2022-08-27T07:50:43.760Z,11.73
2022-08-27T07:53:29.964Z,8.73
2022-08-27T07:56:16.342Z,8.65
2022-08-27T07:59:02.429Z,10.10
2022-08-27T08:01:49.189Z,7.45
2022-08-27T08:04:35.914Z,5.07
2022-08-27T08:07:21.973Z,8.95
2022-08-27T08:10:10.207Z,7.15
2022-08-27T08:12:56.095Z,8.23
2022-08-27T08:15:45.138Z,4.65
2022-08-27T08:21:11.676Z,8.00
2022-08-27T08:23:57.578Z,13.02
2022-08-27T08:26:44.384Z,5.38
2022-08-27T08:29:30.347Z,9.52
2022-08-27T08:32:17.382Z,6.60
2022-08-27T08:35:04.789Z,11.40
2022-08-27T08:37:50.788Z,9.70
2022-08-27T08:40:41.336Z,5.97
2022-08-27T08:43:37.012Z,8.18
2022-08-27T08:46:33.294Z,4.47
2022-08-27T08:49:34.788Z,4.38
2022-08-27T08:52:40.699Z,4.90
2022-08-27T08:55:34.353Z,4.68
2022-08-27T12:47:50.867Z,15.43
2022-08-27T12:50:38.469Z,12.27
2022-08-27T12:53:43.617Z,6.63
2022-08-27T12:56:46.367Z,6.85
2022-08-27T13:00:01.928Z,53.70
2022-08-27T13:03:16.026Z,8.07
2022-08-27T13:06:01.879Z,8.43
2022-08-27T17:33:05.311Z,9.82
2022-08-27T17:35:51.513Z,10.52
2022-08-27T17:38:38.894Z,12.48
2022-08-27T17:41:36.744Z,9.68
2022-08-27T17:44:32.973Z,11.07
2022-08-27T17:47:20.801Z,13.15
2022-08-27T17:50:06.815Z,19.25
2022-08-27T17:52:52.565Z,14.73
2022-08-27T17:55:38.483Z,14.27
2022-08-27T17:58:25.364Z,10.48
2022-08-27T18:01:11.383Z,9.40
2022-08-27T18:03:58.449Z,10.35
2022-08-27T18:06:44.692Z,9.35
2022-08-27T18:09:30.513Z,11.18
2022-08-27T18:12:19.179Z,16.55
2022-08-27T18:15:24.207Z,13.90
2022-08-27T18:18:11.778Z,18.85
2022-08-27T18:20:58.493Z,15.25
2022-08-27T18:23:44.665Z,30.77
2022-08-27T18:26:31.627Z,69.97
2022-08-27T18:29:17.894Z,19.85
2022-08-27T18:32:05.133Z,23.45
2022-08-27T18:34:51.820Z,18.60
2022-08-27T18:37:37.759Z,16.23
2022-08-27T18:40:28.537Z,12.88
2022-08-27T18:43:15.819Z,16.55
2022-08-27T18:46:04.004Z,15.15
2022-08-27T18:48:50.164Z,13.48
2022-08-27T18:51:37.361Z,24.73
2022-08-27T18:54:24.933Z,28.80
2022-08-27T18:57:12.524Z,56.53
2022-08-27T18:59:59.140Z,66.80
2022-08-27T19:02:50.043Z,71.80
2022-08-27T19:05:37.898Z,65.35
2022-08-27T19:08:24.770Z,53.42
2022-08-27T19:11:11.101Z,32.40
2022-08-27T19:13:57.525Z,34.22
2022-08-27T19:16:50.688Z,51.85
2022-08-27T19:19:36.589Z,40.55
2022-08-27T19:22:22.731Z,22.30
2022-08-27T19:25:08.618Z,19.67
2022-08-27T19:27:55.120Z,15.73
2022-08-27T19:30:41.070Z,18.90
2022-08-27T19:33:26.787Z,16.83
2022-08-27T19:36:15.999Z,23.02
2022-08-27T19:39:02.346Z,75.35
2022-08-27T19:41:48.820Z,30.42
2022-08-27T19:44:34.671Z,26.80
2022-08-27T19:47:25.762Z,26.65
2022-08-27T19:50:19.138Z,25.15
2022-08-27T19:53:05.450Z,31.60
2022-08-27T19:55:52.204Z,27.60
2022-08-27T19:58:37.799Z,21.75
2022-08-27T20:01:23.502Z,31.17
2022-08-27T20:04:09.170Z,27.55
2022-08-27T20:06:55.083Z,24.33
2022-08-27T20:09:42.470Z,32.22
2022-08-27T20:12:28.230Z,31.33
2022-08-27T20:15:14.252Z,30.60
2022-08-27T20:18:01.547Z,24.63
2022-08-27T20:20:47.386Z,22.13
2022-08-27T20:23:33.418Z,19.88
2022-08-27T20:26:20.180Z,23.75
2022-08-27T20:29:11.381Z,26.25
2022-08-27T20:32:01.858Z,39.15
2022-08-27T20:34:47.633Z,31.48
2022-08-27T20:37:33.668Z,41.45
2022-08-27T20:40:31.449Z,30.42
2022-08-27T20:43:18.838Z,31.52
2022-08-27T20:46:05.315Z,29.92
2022-08-27T20:48:51.713Z,28.52
2022-08-27T20:52:02.098Z,41.25
2022-08-27T20:54:43.453Z,32.47
2022-08-27T20:57:29.641Z,27.90
2022-08-27T21:00:21.337Z,31.75
2022-08-27T21:03:12.754Z,40.42
2022-08-27T21:05:58.420Z,59.75
2022-08-27T21:08:44.368Z,53.08
2022-08-27T21:11:30.235Z,47.38
2022-08-27T21:14:16.062Z,48.50
2022-08-27T21:17:02.268Z,38.25
2022-08-27T21:19:48.073Z,36.50
2022-08-27T21:22:34.452Z,32.17
2022-08-27T21:25:20.194Z,36.00
2022-08-27T21:28:07.516Z,33.78
2022-08-27T21:30:53.707Z,29.42
2022-08-27T21:33:39.801Z,34.53
2022-08-27T21:36:25.731Z,30.25
2022-08-27T21:39:11.786Z,31.83
2022-08-27T21:41:57.801Z,32.45
2022-08-27T21:44:43.922Z,26.48
2022-08-27T21:47:30.158Z,31.23
2022-08-27T21:50:16.099Z,28.95
2022-08-27T21:53:02.028Z,26.50
2022-08-27T21:55:51.401Z,33.10
2022-08-27T21:58:37.739Z,33.45
2022-08-27T22:01:23.370Z,28.02
2022-08-27T22:04:09.066Z,28.52
2022-08-27T22:06:54.958Z,30.95
2022-08-27T22:09:40.869Z,38.45
2022-08-27T22:12:26.926Z,29.95
2022-08-27T22:15:12.886Z,35.85
2022-08-27T22:17:59.221Z,38.83
2022-08-27T22:20:45.287Z,33.22
2022-08-27T22:23:31.463Z,36.58
2022-08-27T22:26:17.630Z,36.55
2022-08-27T22:29:04.970Z,32.30
2022-08-27T22:31:51.093Z,29.73
2022-08-27T22:34:36.839Z,29.77
2022-08-27T22:37:22.886Z,34.05
2022-08-27T22:40:19.182Z,33.92
2022-08-27T22:43:06.651Z,29.38
2022-08-27T22:45:52.478Z,31.23
2022-08-27T22:48:39.101Z,34.28
2022-08-27T22:51:24.884Z,33.75
2022-08-27T22:54:10.720Z,36.78
2022-08-27T22:56:56.271Z,37.08
2022-08-27T22:59:42.271Z,39.00
2022-08-27T23:02:28.468Z,38.72
2022-08-27T23:05:16.074Z,38.03
2022-08-27T23:08:03.865Z,47.33
2022-08-27T23:10:51.807Z,35.22
2022-08-27T23:13:38.809Z,37.83
2022-08-27T23:16:24.753Z,36.78
2022-08-27T23:19:11.416Z,33.53
2022-08-27T23:21:58.429Z,34.15
2022-08-27T23:25:03.013Z,32.90
2022-08-27T23:27:48.675Z,33.67
2022-08-27T23:30:35.436Z,44.72
2022-08-27T23:33:21.367Z,38.28
2022-08-27T23:36:07.336Z,38.70
2022-08-27T23:38:53.023Z,32.08
2022-08-27T23:41:38.921Z,31.83
2022-08-27T23:44:28.497Z,32.60
2022-08-27T23:47:15.151Z,32.92
2022-08-27T23:50:01.435Z,34.40
2022-08-27T23:52:47.115Z,32.08
2022-08-27T23:55:33.840Z,37.10
2022-08-27T23:58:19.415Z,35.78
